EGSSLEAS

Guest
Details From EGSS - London Stansted
To LEAS - Asturias
Flight Number -
Tags Generated
Created
Modified
Stats Distance 560 nm / 1,036 km
Max Altitude 0 ft / 0 m
Waypoints 4
Social Downloads 1
Likes 0
Share VATSIM

Download

Looking for another format? Having issues loading an existing format? Contact us
Advertisement - Login to hide

Notes

Generated

Route

EGSS SALME ARPOM LEAS

ID Type Via Altitude Latitude Longitude Leg Dist Tot Dist Heading (true) Name
O EGSS APT - 0 ft / 0 m 51.87508˚ 0.21993˚ - 0 nm - -
SALME FIX - 0 ft / 0 m 47.82289˚ -3.15889˚ 276 nm 276 nm 210° / 207° -
ARPOM FIX - 0 ft / 0 m 43.82917˚ -5.98441˚ 267 nm 543 nm 207° / 205° -
O LEAS APT - 0 ft / 0 m 43.56657˚ -6.04764˚ 16 nm 559 nm 190° / 190° -

Altitude Profile

Advertisement - Login to hide

Weather


0- 5 10 15 20 25 30 35+ Temperature / ° C

Clouds and Precipitation
Forecast for 2017-12-11 12:00 UTC. Updated 44 minutes ago

Ground ~20,000 ft ~40,000 ft Winds

EGSS

Details ICAO EGSS (STN)
Name London Stansted
Region United Kingdom
Timezone Europe/London (UTC+0.0)
Stats Elevation 348 ft / 106 m (AMSL)
Location 51.885097° 0.234962°
Runways 1
Magnetic Variation 0.364° W

METAR

EGSS 110750Z AUTO 03016KT 8000 -RA SCT008 BKN016 BKN022 02/01 Q0980

Decode

TAF

TAF EGSS 110504Z 1106/1212 03014KT 9999 FEW002 TEMPO 1106/1114 5000 BR BKN002 PROB30 TEMPO 1106/1108 0300 FG FZFG BKN001 PROB30 TEMPO 1108/1112 02015G25KT 0800 SN BKN001 BECMG 1112/1115 33012KT BECMG 1200/1203 27008KT PROB30 1206/1212 2000 BR BKN002

Decode

Departure Runways

ID Width Length Bearing (true) Bearing (mag) Surface Threshold Offset Overrun Length
04 151 ft / 46 m 10,011 ft / 3,052 m 42.79° 43.15° Asphalt 994 ft / 303 m 0 ft / 0 m
22 151 ft / 46 m 10,011 ft / 3,052 m 222.81° 223.17° Asphalt 0 ft / 0 m 0 ft / 0 m

LEAS

Details ICAO LEAS (OVD)
Name Asturias
Region Spain
Timezone Europe/Madrid (UTC+1.0)
Stats Elevation 416 ft / 127 m (AMSL)
Location 43.563496° -6.034670°
Runways 1
Magnetic Variation 1.629° W

METAR

LEAS 110800Z 23011KT 9000 -RA BKN035 BKN060 07/04 Q0990 TEMPO 4000 SHRA BKN025TCU

Decode

TAF

TAF LEAS 110200Z 1103/1203 26012G22KT 9000 SCT020 BKN035 TX09/1113Z TN05/1203Z TEMPO 1103/1109 26020G32KT 4000 RA SHRA BKN020TCU TEMPO 1109/1203 4000 SHRA SCT030TCU PROB40 TEMPO 1103/1203 2500 TSRAGR BKN014 BKN025CB TEMPO 1109/1115 32012G22KT

Decode

Destination Runways

ID Width Length Bearing (true) Bearing (mag) Surface Threshold Offset Overrun Length
11 148 ft / 45 m 7,216 ft / 2,200 m 108.09° 109.72° Asphalt 0 ft / 0 m 164 ft / 50 m
29 148 ft / 45 m 7,216 ft / 2,200 m 288.10° 289.73° Asphalt 0 ft / 0 m 164 ft / 50 m

Approach Navaids

Runway Type Ident Frequency Range Bearing (true) Bearing (mag) Slope Elevation
29 Localiser AVS 110.10 MHz 18 nm / 33 km 288.30° 289.93° - 416 ft / 127 m (AMSL)
29 Glidescope AVS 110.10 MHz 10 nm / 19 km 288.09° 289.72° 3.00° 416 ft / 127 m (AMSL)
29 DME AVS 110.10 MHz 18 nm / 33 km - - - 430 ft / 131 m (AMSL)

Popular Alternatives